Language selection

Weather shortcuts

Lake Nipigon: Past 24 Hour Conditions

 

Pukaskwa National Park

03:00 AM EDT 19 June 2024
Disclaimer

This table is a summary of hourly weather conditions for the past 24 hours.
Please note that these observations might not always be representative of weather conditions over their associated marine area.

Date / Time
(EDT)
Wind(knots) Conditions Visibility(km) Pressure(kPa) Air tempC) Relative humidity(%) Dew pointC) Humidex
19 June 2024
3:00 W 3 N/A N/A 100.9 15 97 14 *
2:00 WSW 3 N/A N/A 101.0 14 96 13 *
1:00 SSW 6 N/A N/A 101.0 15 94 14 *
0:00 SSW 4 gusts 17 N/A N/A 100.9 16 95 15 *
18 June 2024
23:00 S 13 gusts 22 N/A N/A 100.7 23 79 19 30
22:00 SSE 12 gusts 25 N/A N/A 100.8 23 78 19 30
21:00 S 11 gusts 22 N/A N/A 100.8 24 75 19 30
20:00 S 11 gusts 22 N/A N/A 100.8 24 73 19 31
19:00 S 9 gusts 20 N/A N/A 100.8 26 67 20 34
18:00 SSW 10 gusts 25 N/A N/A 100.8 27 64 20 35
17:00 S 10 gusts 20 N/A N/A 100.9 27 65 20 34
16:00 S 6 gusts 17 N/A N/A 101.0 26 68 20 33
15:00 S 7 gusts 21 N/A N/A 101.0 25 72 19 32
14:00 S 9 gusts 23 N/A N/A 101.0 23 74 19 30
13:00 S 10 gusts 22 N/A N/A 101.0 23 77 19 30
12:00 SSW 8 gusts 22 N/A N/A 101.0 24 73 19 30
11:00 SSW 7 N/A N/A 101.1 19 90 18 *
10:00 NE 2 N/A N/A 101.2 13 97 13 *
9:00 NNE 3 N/A N/A 101.2 12 97 12 *
8:00 NE 4 N/A N/A 101.2 11 97 10 *
7:00 ENE 4 N/A N/A 101.1 10 96 9 *
6:00 ENE 3 N/A N/A 101.2 9 95 8 *
5:00 NE 6 N/A N/A 101.2 8 96 8 *
4:00 NE 5 N/A N/A 101.2 8 96 8 *
3:00 ENE 4 N/A N/A 101.3 8 95 8 *

Zoom-in to make a selection

Map of Great Lakes - Lake Superior marine weather areas Mid Superior - 45001 East Superior - 45004 West Superior - 45006 Slate Island - 45136 Lake Of the Woods - 45148 Kenora Airport Royal Island Armstrong Airport Caribou Island Marathon Airport Pukaskwa National Park Thunder Bay Airport Welcome Island Little Flatland Island Sault Ste. Marie Airport Wawa Airport
Legend:
buoy Buoy
land station Land Station

Great Lakes - Lake Superior Area

Another Region

Features

New Predicting and Alerting Coastal Flooding Program

Find out about coastal flooding coverage, forecasts and warnings in your region

Date modified: